Catina — VJD3632 — position and weather

sailwx.info

Track history (hours):
 
Tides and Currents Weather Stations Pressure Air Temp Water Temp Dewpoint Dewpoint Depression Visibility Wind Speed Wind Dir Waves Ship Positions

Catina

Last reported at 2018-May-28 03:42 UTC. Time now 2018-Jun-25 08:21 UTC.
Position S 27°11' E 153°06'.
Warning: this ship's position is 28 days out of date.

Length 12 m; draft 0.9 m.

Type: Sailing vessel. MMSI: 503011820.

Date/timePositionNaut miles runAvg speedWind from/ knotsBaromVisibWave heightAir tempDewpointWater temp
2018-May-28 03:42S 27°11' E 153°06'0 0.0
2018-May-28 03:15S 27°11' E 153°06'1 3.6
2018-May-28 03:00S 27°11' E 153°06'3 5.4
2018-May-28 02:30S 27°13' E 153°09'5 9.7
2018-May-28 01:59S 27°17' E 153°11'1 3.1
2018-May-28 01:30S 27°18' E 153°12'1016.9
2018-May-28 00:53S 27°29' E 153°14'410.1
2018-May-28 00:30S 27°25' E 153°16'6 0.3
2018-May-27 03:11S 27°31' E 153°17'3 2.1
2018-May-27 01:33S 27°33' E 153°20'0 4.7
2018-May-27 01:30S 27°33' E 153°20'7 4.6
2018-May-27 00:02S 27°39' E 153°22'10 4.1
2018-May-26 21:34S 27°49' E 153°24'8 8.6
2018-May-26 20:36S 27°57' E 153°25'0 0.0
2018-May-26 20:03S 27°57' E 153°25'  
2018-May-22 04:31S 27°57' E 153°25'0 0.0
2018-May-22 03:57S 27°57' E 153°25'0 0.5
2018-May-22 03:30S 27°58' E 153°25'0 0.0
2018-May-22 03:00S 27°58' E 153°25'0 0.5
2018-May-22 02:29S 27°57' E 153°25'0 0.0
2018-May-22 01:58S 27°57' E 153°25'0 0.0
2018-May-22 01:28S 27°57' E 153°25'0 0.0
2018-May-22 00:58S 27°57' E 153°25'0 0.0
2018-May-22 00:28S 27°57' E 153°25'0 0.0
2018-May-21 23:58S 27°57' E 153°25'0 0.0
2018-May-21 23:28S 27°57' E 153°25'0 0.0
2018-May-21 22:58S 27°57' E 153°25'0 0.0
2018-May-21 22:28S 27°57' E 153°25'  
2018-May-18 04:25S 27°58' E 153°25'0 1.1
2018-May-18 04:00S 27°57' E 153°25'  
Track history (hours):
 
Tides and Currents Weather Stations Pressure Air Temp Water Temp Dewpoint Dewpoint Depression Visibility Wind Speed Wind Dir Waves Ship Positions

Catina

Last reported at 2018-May-28 03:42 UTC. Time now 2018-Jun-25 08:21 UTC.
Position S 27°11' E 153°06'.
Warning: this ship's position is 28 days out of date.

Length 12 m; draft 0.9 m.

Type: Sailing vessel. MMSI: 503011820.

Date/timePositionNaut miles runAvg speedWind from/ knotsBaromVisibWave heightAir tempDewpointWater temp
2018-May-28 03:42S 27°11' E 153°06'0 0.0
2018-May-28 03:15S 27°11' E 153°06'1 3.6
2018-May-28 03:00S 27°11' E 153°06'3 5.4
2018-May-28 02:30S 27°13' E 153°09'5 9.7
2018-May-28 01:59S 27°17' E 153°11'1 3.1
2018-May-28 01:30S 27°18' E 153°12'1016.9
2018-May-28 00:53S 27°29' E 153°14'410.1
2018-May-28 00:30S 27°25' E 153°16'6 0.3
2018-May-27 03:11S 27°31' E 153°17'3 2.1
2018-May-27 01:33S 27°33' E 153°20'0 4.7
2018-May-27 01:30S 27°33' E 153°20'7 4.6
2018-May-27 00:02S 27°39' E 153°22'10 4.1
2018-May-26 21:34S 27°49' E 153°24'8 8.6
2018-May-26 20:36S 27°57' E 153°25'0 0.0
2018-May-26 20:03S 27°57' E 153°25'  
2018-May-22 04:31S 27°57' E 153°25'0 0.0
2018-May-22 03:57S 27°57' E 153°25'0 0.5
2018-May-22 03:30S 27°58' E 153°25'0 0.0
2018-May-22 03:00S 27°58' E 153°25'0 0.5
2018-May-22 02:29S 27°57' E 153°25'0 0.0
2018-May-22 01:58S 27°57' E 153°25'0 0.0
2018-May-22 01:28S 27°57' E 153°25'0 0.0
2018-May-22 00:58S 27°57' E 153°25'0 0.0
2018-May-22 00:28S 27°57' E 153°25'0 0.0
2018-May-21 23:58S 27°57' E 153°25'0 0.0
2018-May-21 23:28S 27°57' E 153°25'0 0.0
2018-May-21 22:58S 27°57' E 153°25'0 0.0
2018-May-21 22:28S 27°57' E 153°25'  
2018-May-18 04:25S 27°58' E 153°25'0 1.1
2018-May-18 04:00S 27°57' E 153°25'  

Dump ship's entire track history